createdAt,value
2019-01-10T00:02:43.164Z,9.87
2019-01-10T00:07:47.832Z,9.50
2019-01-10T00:12:52.371Z,10.27
2019-01-10T00:17:56.971Z,10.13
2019-01-10T00:23:01.570Z,8.87
2019-01-10T00:28:06.150Z,11.27
2019-01-10T00:33:10.749Z,10.63
2019-01-10T00:38:15.391Z,9.83
2019-01-10T00:43:19.976Z,11.30
2019-01-10T00:48:24.534Z,10.20
2019-01-10T00:53:29.090Z,11.63
2019-01-10T00:58:33.655Z,10.03
2019-01-10T01:03:38.157Z,10.43
2019-01-10T01:08:42.744Z,10.37
2019-01-10T01:13:47.360Z,10.57
2019-01-10T01:18:51.950Z,9.60
2019-01-10T01:23:56.471Z,9.80
2019-01-10T01:29:01.063Z,9.80
2019-01-10T01:34:05.780Z,10.37
2019-01-10T01:39:10.355Z,10.93
2019-01-10T01:44:14.939Z,11.10
2019-01-10T01:49:19.549Z,11.03
2019-01-10T01:54:24.142Z,11.83
2019-01-10T01:59:28.663Z,11.80
2019-01-10T02:04:33.191Z,11.87
2019-01-10T02:09:37.761Z,12.13
2019-01-10T02:14:42.288Z,11.40
2019-01-10T02:19:46.836Z,13.10
2019-01-10T02:24:51.440Z,10.97
2019-01-10T02:29:56.008Z,12.63
2019-01-10T02:35:00.551Z,12.60
2019-01-10T02:40:05.686Z,13.23
2019-01-10T02:45:11.451Z,13.27
2019-01-10T02:50:18.762Z,12.50
2019-01-10T02:55:23.348Z,13.67
2019-01-10T03:00:27.920Z,13.87
2019-01-10T03:05:32.423Z,13.70
2019-01-10T03:10:37.097Z,12.43
2019-01-10T03:15:41.667Z,13.37
2019-01-10T03:20:46.337Z,12.77
2019-01-10T03:25:50.899Z,13.63
2019-01-10T03:30:55.491Z,13.90
2019-01-10T03:36:00.097Z,12.60
2019-01-10T03:41:04.839Z,13.43
2019-01-10T03:46:09.448Z,13.57
2019-01-10T03:51:14.026Z,14.50
2019-01-10T03:56:18.621Z,14.83
2019-01-10T04:01:23.228Z,14.83
2019-01-10T04:06:27.798Z,15.27
2019-01-10T04:11:32.381Z,14.97
2019-01-10T04:16:37.000Z,15.73
2019-01-10T04:21:41.579Z,14.07
2019-01-10T04:26:46.163Z,14.60
2019-01-10T04:31:50.725Z,16.63
2019-01-10T04:36:55.299Z,14.27
2019-01-10T04:41:59.900Z,15.23
2019-01-10T04:47:04.503Z,14.47
2019-01-10T04:52:09.357Z,15.13
2019-01-10T04:57:13.963Z,15.77
2019-01-10T05:02:18.854Z,16.77
2019-01-10T05:07:23.405Z,16.20
2019-01-10T05:12:27.975Z,15.17
2019-01-10T05:17:32.586Z,19.33
2019-01-10T05:22:37.182Z,16.07
2019-01-10T05:27:42.094Z,16.70
2019-01-10T05:32:46.637Z,16.83
2019-01-10T05:37:51.213Z,18.83
2019-01-10T05:42:55.910Z,16.37
2019-01-10T05:48:00.505Z,17.40
2019-01-10T05:53:05.088Z,18.97
2019-01-10T05:58:09.686Z,17.97
2019-01-10T06:03:14.301Z,18.77
2019-01-10T06:08:18.885Z,20.88
2019-01-10T06:13:23.473Z,25.92
2019-01-10T06:18:28.073Z,21.50
2019-01-10T06:23:32.656Z,19.57
2019-01-10T06:28:37.204Z,20.13
2019-01-10T06:33:41.807Z,18.77
2019-01-10T06:38:46.408Z,21.13
2019-01-10T06:43:51.138Z,19.40
2019-01-10T06:48:55.701Z,21.40
2019-01-10T06:54:00.251Z,20.43
2019-01-10T06:59:04.833Z,21.50
2019-01-10T07:04:09.454Z,20.70
2019-01-10T07:09:13.976Z,23.27
2019-01-10T07:14:19.052Z,30.43
2019-01-10T07:19:46.805Z,23.97
2019-01-10T07:24:55.785Z,22.87
2019-01-10T07:30:00.454Z,21.73
2019-01-10T07:35:08.989Z,22.73
2019-01-10T07:40:16.223Z,23.07
2019-01-10T07:45:22.968Z,24.17
2019-01-10T07:50:37.759Z,32.17
2019-01-10T07:55:42.448Z,32.40
2019-01-10T08:00:47.274Z,23.40
2019-01-10T08:05:55.120Z,25.17
2019-01-10T08:10:59.632Z,23.53
2019-01-10T08:16:04.280Z,24.60
2019-01-10T08:21:08.829Z,25.73
2019-01-10T08:26:13.408Z,24.87
2019-01-10T08:31:17.976Z,29.30
2019-01-10T08:36:22.561Z,32.48
2019-01-10T08:41:27.151Z,25.07
2019-01-10T08:46:31.766Z,26.07
2019-01-10T08:51:38.071Z,27.67
2019-01-10T08:56:42.854Z,27.23
2019-01-10T09:01:47.389Z,28.70
2019-01-10T09:06:51.963Z,26.73
2019-01-10T09:11:56.500Z,26.50
2019-01-10T09:17:01.113Z,28.77
2019-01-10T09:22:05.694Z,30.47
2019-01-10T09:27:10.294Z,28.87
2019-01-10T09:32:14.869Z,28.77
2019-01-10T09:37:19.369Z,27.87
2019-01-10T09:42:23.987Z,29.27
2019-01-10T09:47:28.606Z,29.73
2019-01-10T09:52:33.161Z,28.77
2019-01-10T09:57:37.813Z,28.20
2019-01-10T10:02:42.352Z,29.63
2019-01-10T10:07:46.917Z,28.23
2019-01-10T10:12:51.507Z,28.30
2019-01-10T10:17:56.068Z,29.33
2019-01-10T10:23:00.581Z,31.17
2019-01-10T10:28:05.241Z,30.43
2019-01-10T10:33:09.836Z,33.40
2019-01-10T10:38:14.316Z,32.57
2019-01-10T10:43:18.819Z,31.90
2019-01-10T10:48:23.355Z,33.17
2019-01-10T10:53:28.022Z,30.27
2019-01-10T10:58:32.534Z,33.67
2019-01-10T11:03:38.819Z,30.90
2019-01-10T11:08:44.677Z,32.13
2019-01-10T11:13:49.573Z,33.47
2019-01-10T11:18:54.100Z,33.60
2019-01-10T11:23:58.605Z,33.90
2019-01-10T11:29:03.149Z,28.83
2019-01-10T11:34:07.720Z,31.17
2019-01-10T11:39:12.346Z,30.40
2019-01-10T11:44:16.908Z,31.30
2019-01-10T11:49:21.540Z,30.87
2019-01-10T11:54:26.137Z,31.83
2019-01-10T11:59:30.705Z,31.53
2019-01-10T12:04:35.206Z,32.30
2019-01-10T12:09:39.803Z,32.70
2019-01-10T12:14:44.399Z,34.00
2019-01-10T12:19:48.973Z,34.17
2019-01-10T12:24:53.514Z,37.60
2019-01-10T12:29:58.083Z,34.63
2019-01-10T12:35:02.661Z,35.63
2019-01-10T12:40:09.272Z,32.17
2019-01-10T12:45:14.937Z,30.87
2019-01-10T12:50:25.034Z,28.67
2019-01-10T12:55:29.580Z,29.77
2019-01-10T13:00:34.261Z,30.17
2019-01-10T13:05:38.758Z,29.93
2019-01-10T13:10:43.254Z,26.87
2019-01-10T13:15:47.822Z,25.60
2019-01-10T13:20:52.501Z,22.30
2019-01-10T13:25:59.811Z,24.10
2019-01-10T13:31:03.305Z,25.60
2019-01-10T13:36:07.889Z,19.93
2019-01-10T13:41:12.447Z,21.60
2019-01-10T13:46:17.589Z,22.30
2019-01-10T13:51:22.181Z,24.07
2019-01-10T13:56:26.702Z,20.33
2019-01-10T14:01:31.326Z,21.47
2019-01-10T14:06:35.956Z,20.93
2019-01-10T14:11:40.580Z,20.27
2019-01-10T14:16:45.160Z,21.57
2019-01-10T14:21:49.741Z,29.10
2019-01-10T14:26:54.259Z,26.03
2019-01-10T14:31:58.849Z,22.87
2019-01-10T14:37:03.526Z,21.47
2019-01-10T14:42:08.162Z,20.20
2019-01-10T14:47:12.744Z,21.53
2019-01-10T14:52:17.386Z,20.60
2019-01-10T14:57:21.918Z,22.03
2019-01-10T15:02:26.519Z,22.60
2019-01-10T15:07:31.078Z,23.27
2019-01-10T15:12:35.602Z,21.00
2019-01-10T15:17:40.170Z,22.13
2019-01-10T15:22:44.737Z,22.30
2019-01-10T15:27:49.229Z,22.47
2019-01-10T15:32:53.775Z,21.40
2019-01-10T15:37:58.357Z,22.00
2019-01-10T15:43:03.799Z,21.33
2019-01-10T15:48:08.406Z,20.10
2019-01-10T15:53:13.055Z,20.83
2019-01-10T15:58:17.762Z,24.80
2019-01-10T16:03:22.269Z,19.53
2019-01-10T16:08:26.890Z,20.13
2019-01-10T16:13:31.495Z,19.93
2019-01-10T16:18:36.118Z,27.10
2019-01-10T16:23:40.699Z,26.77
2019-01-10T16:28:45.292Z,25.40
2019-01-10T16:33:49.898Z,25.15
2019-01-10T16:38:54.475Z,20.60
2019-01-10T16:43:59.050Z,21.03
2019-01-10T16:49:03.635Z,21.17
2019-01-10T16:54:08.247Z,22.00
2019-01-10T16:59:12.819Z,26.87
2019-01-10T17:04:17.420Z,26.52
2019-01-10T17:09:22.034Z,20.72
2019-01-10T17:14:26.626Z,20.47
2019-01-10T17:19:31.196Z,23.07
2019-01-10T17:24:35.749Z,20.63
2019-01-10T17:29:40.351Z,24.80
2019-01-10T17:34:44.994Z,26.35
2019-01-10T17:39:49.611Z,23.17
2019-01-10T17:44:54.241Z,21.90
2019-01-10T17:49:58.817Z,29.60
2019-01-10T17:55:05.085Z,24.43
2019-01-10T18:00:16.559Z,28.55
2019-01-10T18:05:21.148Z,23.33
2019-01-10T18:10:25.734Z,31.57
2019-01-10T18:15:30.340Z,24.30
2019-01-10T18:20:37.526Z,33.80
2019-01-10T18:25:42.129Z,34.33
2019-01-10T18:30:46.719Z,34.03
2019-01-10T18:35:51.287Z,25.17
2019-01-10T18:40:55.852Z,32.73
2019-01-10T18:46:00.436Z,32.88
2019-01-10T18:51:05.031Z,24.33
2019-01-10T18:56:09.717Z,30.70
2019-01-10T19:01:14.309Z,23.43
2019-01-10T19:06:18.940Z,33.10
2019-01-10T19:11:23.540Z,22.30
2019-01-10T19:16:28.126Z,22.73
2019-01-10T19:21:32.732Z,32.28
2019-01-10T19:26:37.308Z,31.73
2019-01-10T19:31:41.833Z,24.87
2019-01-10T19:36:46.398Z,23.70
2019-01-10T19:41:51.000Z,24.13
2019-01-10T19:46:55.588Z,26.37
2019-01-10T19:52:00.242Z,23.80
2019-01-10T19:57:04.997Z,23.20
2019-01-10T20:02:09.548Z,24.90
2019-01-10T20:07:14.207Z,25.77
2019-01-10T20:12:18.824Z,25.97
2019-01-10T20:17:23.427Z,25.90
2019-01-10T20:22:28.117Z,28.03
2019-01-10T20:27:32.682Z,25.83
2019-01-10T20:32:37.307Z,26.47
2019-01-10T20:37:42.077Z,23.90
2019-01-10T20:42:46.689Z,24.43
2019-01-10T20:47:51.340Z,24.10
2019-01-10T20:52:55.945Z,24.87
2019-01-10T20:58:00.619Z,25.30
2019-01-10T21:03:05.261Z,26.07
2019-01-10T21:08:09.834Z,24.53
2019-01-10T21:13:14.357Z,24.80
2019-01-10T21:18:18.916Z,25.00
2019-01-10T21:23:23.733Z,27.33
2019-01-10T21:28:28.363Z,25.70
2019-01-10T21:33:33.018Z,24.63
2019-01-10T21:38:37.733Z,24.53
2019-01-10T21:43:42.384Z,27.37
2019-01-10T21:48:47.043Z,25.87
2019-01-10T21:53:51.698Z,26.33
2019-01-10T21:58:56.393Z,28.27
2019-01-10T22:04:01.082Z,28.03
2019-01-10T22:09:07.923Z,26.80
2019-01-10T22:14:12.598Z,28.87
2019-01-10T22:19:17.316Z,29.37
2019-01-10T22:24:21.858Z,26.07
2019-01-10T22:29:26.464Z,27.93
2019-01-10T22:34:31.164Z,29.17
2019-01-10T22:39:35.773Z,29.17
2019-01-10T22:44:40.336Z,27.80
2019-01-10T22:49:44.913Z,27.53
2019-01-10T22:54:49.518Z,28.87
2019-01-10T22:59:54.214Z,29.33
2019-01-10T23:04:58.884Z,27.83
2019-01-10T23:10:05.292Z,30.17
2019-01-10T23:15:32.505Z,29.57
2019-01-10T23:20:37.182Z,30.87
2019-01-10T23:25:41.798Z,30.83
2019-01-10T23:30:48.502Z,29.70
2019-01-10T23:35:59.389Z,30.20
2019-01-10T23:41:03.905Z,31.13
2019-01-10T23:46:08.547Z,29.97
2019-01-10T23:51:13.126Z,32.70
2019-01-10T23:56:19.127Z,33.47
